createdAt,value
2022-12-08T00:01:09.654Z,2.92
2022-12-08T00:03:36.904Z,2.96
2022-12-08T00:06:24.069Z,2.97
2022-12-08T00:09:09.916Z,2.96
2022-12-08T00:11:36.589Z,2.97
2022-12-08T00:14:03.369Z,2.98
2022-12-08T00:16:29.851Z,2.98
2022-12-08T00:18:56.408Z,2.99
2022-12-08T00:21:22.857Z,3.01
2022-12-08T00:23:49.254Z,3.04
2022-12-08T00:26:15.884Z,3.06
2022-12-08T00:28:42.371Z,3.09
2022-12-08T00:31:10.510Z,3.10
2022-12-08T00:33:37.342Z,3.10
2022-12-08T00:36:11.104Z,3.11
2022-12-08T00:38:38.816Z,3.08
2022-12-08T00:41:17.260Z,3.08
2022-12-08T00:43:44.099Z,3.07
2022-12-08T00:46:11.963Z,3.05
2022-12-08T00:48:39.203Z,3.02
2022-12-08T00:51:05.963Z,2.97
2022-12-08T00:53:32.447Z,2.93
2022-12-08T00:55:59.005Z,2.90
2022-12-08T00:58:25.420Z,2.91
2022-12-08T01:00:52.531Z,2.89
2022-12-08T01:03:19.185Z,2.86
2022-12-08T01:05:45.759Z,2.83
2022-12-08T01:08:12.471Z,2.82
2022-12-08T01:10:39.551Z,2.81
2022-12-08T01:13:06.168Z,2.82
2022-12-08T01:15:32.569Z,2.84
2022-12-08T01:17:59.194Z,2.86
2022-12-08T01:20:25.650Z,2.90
2022-12-08T01:22:52.151Z,2.95
2022-12-08T01:25:18.640Z,2.98
2022-12-08T01:27:45.127Z,2.99
2022-12-08T01:30:13.173Z,3.00
2022-12-08T01:32:40.175Z,3.01
2022-12-08T01:35:06.845Z,2.99
2022-12-08T01:37:33.303Z,2.99
2022-12-08T01:39:59.755Z,3.01
2022-12-08T01:42:26.361Z,3.04
2022-12-08T01:45:02.532Z,3.05
2022-12-08T01:47:37.849Z,3.05
2022-12-08T01:50:06.977Z,3.05
2022-12-08T01:52:36.707Z,3.05
2022-12-08T01:55:17.439Z,3.03
2022-12-08T01:57:48.572Z,3.03
2022-12-08T02:00:18.563Z,3.01
2022-12-08T02:02:48.046Z,3.00
2022-12-08T02:05:16.141Z,2.98
2022-12-08T02:07:43.806Z,2.95
2022-12-08T02:10:14.094Z,2.99
2022-12-08T02:12:40.799Z,2.97
2022-12-08T02:15:07.942Z,2.98
2022-12-08T02:18:03.426Z,2.98
2022-12-08T02:20:50.306Z,2.95
2022-12-08T02:23:27.319Z,2.95
2022-12-08T02:26:33.079Z,2.93
2022-12-08T02:29:21.388Z,2.94
2022-12-08T02:32:08.823Z,2.94
2022-12-08T02:34:45.549Z,2.92
2022-12-08T02:37:23.868Z,2.94
2022-12-08T02:40:11.679Z,2.96
2022-12-08T02:42:43.929Z,2.99
2022-12-08T02:45:17.602Z,2.99
2022-12-08T02:47:44.729Z,2.99
2022-12-08T02:50:12.079Z,2.97
2022-12-08T02:52:43.831Z,2.98
2022-12-08T02:55:31.061Z,3.00
2022-12-08T02:58:42.139Z,3.01
2022-12-08T03:01:20.507Z,3.02
2022-12-08T03:04:23.640Z,3.02
2022-12-08T03:07:04.066Z,3.02
2022-12-08T03:09:53.575Z,3.02
2022-12-08T03:12:30.310Z,3.02
2022-12-08T03:15:00.410Z,3.03
2022-12-08T03:17:30.941Z,3.06
2022-12-08T03:20:00.095Z,3.08
2022-12-08T03:22:27.703Z,3.11
2022-12-08T03:24:55.762Z,3.12
2022-12-08T03:27:27.916Z,3.14
2022-12-08T03:29:57.184Z,3.17
2022-12-08T03:32:26.405Z,3.17
2022-12-08T03:34:54.329Z,3.17
2022-12-08T03:37:21.546Z,3.17
2022-12-08T03:39:48.477Z,3.18
2022-12-08T03:42:14.921Z,3.20
2022-12-08T03:44:41.350Z,3.17
2022-12-08T03:47:08.204Z,3.15
2022-12-08T03:49:34.761Z,3.13
2022-12-08T03:52:01.182Z,3.11
2022-12-08T03:54:27.693Z,3.08
2022-12-08T03:56:54.130Z,3.08
2022-12-08T03:59:20.708Z,3.07
2022-12-08T04:01:47.264Z,3.06
2022-12-08T04:04:13.720Z,3.06
2022-12-08T04:06:40.301Z,3.04
2022-12-08T04:09:06.694Z,3.02
2022-12-08T04:11:33.335Z,3.01
2022-12-08T04:13:59.778Z,3.02
2022-12-08T04:16:27.934Z,3.02
2022-12-08T04:18:55.076Z,2.99
2022-12-08T04:21:21.951Z,2.96
2022-12-08T04:23:48.958Z,2.96
2022-12-08T04:26:15.611Z,2.95
2022-12-08T04:28:42.395Z,2.94
2022-12-08T04:31:09.272Z,2.94
2022-12-08T04:33:35.866Z,2.95
2022-12-08T04:36:04.648Z,2.96
2022-12-08T04:38:31.968Z,2.95
2022-12-08T04:40:58.470Z,2.94
2022-12-08T04:43:24.932Z,2.94
2022-12-08T04:45:51.405Z,2.93
2022-12-08T04:48:18.119Z,2.92
2022-12-08T04:50:45.608Z,2.99
2022-12-08T04:53:13.029Z,2.99
2022-12-08T04:55:41.229Z,2.96
2022-12-08T04:58:07.855Z,2.99
2022-12-08T05:00:34.289Z,2.98
2022-12-08T05:03:00.872Z,2.98
2022-12-08T05:05:27.364Z,3.00
2022-12-08T05:07:53.834Z,2.99
2022-12-08T05:10:20.369Z,2.97
2022-12-08T05:12:46.836Z,2.96
2022-12-08T05:15:13.407Z,2.96
2022-12-08T05:17:39.836Z,2.97
2022-12-08T05:20:07.089Z,2.99
2022-12-08T05:22:33.895Z,3.00
2022-12-08T05:25:00.404Z,3.00
2022-12-08T05:27:26.889Z,2.96
2022-12-08T05:29:53.575Z,2.96
2022-12-08T05:32:20.103Z,2.93
2022-12-08T05:34:46.557Z,2.95
2022-12-08T05:37:13.164Z,2.97
2022-12-08T05:39:39.675Z,3.00
2022-12-08T05:42:06.388Z,2.99
2022-12-08T05:44:32.918Z,2.93
2022-12-08T05:46:59.347Z,2.90
2022-12-08T05:49:26.151Z,2.86
2022-12-08T05:51:52.808Z,2.85
2022-12-08T05:54:19.308Z,2.88
2022-12-08T05:56:45.725Z,2.87
2022-12-08T05:59:12.210Z,2.86
2022-12-08T06:01:39.132Z,2.87
2022-12-08T06:04:05.662Z,2.83
2022-12-08T06:06:34.999Z,2.84
2022-12-08T06:09:05.393Z,2.84
2022-12-08T06:11:32.817Z,2.85
2022-12-08T06:14:00.049Z,2.85
2022-12-08T06:16:28.210Z,2.87
2022-12-08T06:18:55.788Z,2.87
2022-12-08T06:21:23.084Z,2.87
2022-12-08T06:23:51.684Z,2.87
2022-12-08T06:26:18.850Z,2.87
2022-12-08T06:28:45.527Z,2.83
2022-12-08T06:31:24.640Z,2.80
2022-12-08T06:33:52.406Z,2.81
2022-12-08T06:36:21.403Z,2.81
2022-12-08T06:38:48.105Z,2.78
2022-12-08T06:41:14.896Z,2.73
2022-12-08T06:43:41.658Z,2.73
2022-12-08T06:46:11.997Z,2.72
2022-12-08T06:48:38.676Z,2.74
2022-12-08T06:51:10.568Z,2.70
2022-12-08T06:53:40.517Z,2.69
2022-12-08T06:56:07.851Z,2.65
2022-12-08T06:58:34.615Z,2.57
2022-12-08T07:01:09.131Z,2.55
2022-12-08T07:03:37.158Z,2.55
2022-12-08T07:06:04.708Z,2.53
2022-12-08T07:08:32.691Z,2.54
2022-12-08T07:10:59.366Z,2.49
2022-12-08T07:13:25.775Z,2.47
2022-12-08T07:15:52.598Z,2.48
2022-12-08T07:18:19.092Z,2.43
2022-12-08T07:20:45.595Z,2.41
2022-12-08T07:23:12.072Z,2.40
2022-12-08T07:25:38.595Z,2.37
2022-12-08T07:28:10.000Z,2.37
2022-12-08T07:30:36.984Z,2.39
2022-12-08T07:33:05.589Z,2.40
2022-12-08T07:35:34.731Z,2.38
2022-12-08T07:38:01.924Z,2.35
2022-12-08T07:40:28.639Z,2.36
2022-12-08T07:42:55.192Z,2.36
2022-12-08T07:45:24.519Z,2.33
2022-12-08T07:47:54.925Z,2.36
2022-12-08T07:50:21.403Z,2.38
2022-12-08T07:52:48.763Z,2.39
2022-12-08T07:55:15.360Z,2.41
2022-12-08T07:57:41.876Z,2.41
2022-12-08T08:00:08.945Z,2.38
2022-12-08T08:02:38.499Z,2.37
2022-12-08T08:05:06.224Z,2.36
2022-12-08T08:07:32.945Z,2.36
2022-12-08T08:09:59.477Z,2.34
2022-12-08T08:12:33.543Z,2.32
2022-12-08T08:15:01.673Z,2.34
2022-12-08T08:17:29.484Z,2.35
2022-12-08T08:19:56.743Z,2.40
2022-12-08T08:22:24.170Z,2.37
2022-12-08T08:24:50.668Z,2.39
2022-12-08T08:27:17.233Z,2.38
2022-12-08T08:29:43.839Z,2.37
2022-12-08T08:32:10.496Z,2.34
2022-12-08T08:34:37.083Z,2.35
2022-12-08T08:37:04.862Z,2.40
2022-12-08T08:39:31.896Z,2.39
2022-12-08T08:41:58.637Z,2.43
2022-12-08T08:44:25.302Z,2.42
2022-12-08T08:46:51.909Z,2.44
2022-12-08T08:49:18.714Z,2.46
2022-12-08T08:51:45.414Z,2.45
2022-12-08T08:54:11.895Z,2.46
2022-12-08T08:56:38.370Z,2.43
2022-12-08T08:59:05.745Z,2.47
2022-12-08T09:01:32.549Z,2.46
2022-12-08T09:03:59.393Z,2.48
2022-12-08T09:06:28.004Z,2.47
2022-12-08T09:08:54.614Z,2.48
2022-12-08T09:11:23.419Z,2.53
2022-12-08T09:13:51.968Z,2.61
2022-12-08T09:16:19.531Z,2.67
2022-12-08T09:18:46.344Z,2.72
2022-12-08T09:21:20.101Z,2.80
2022-12-08T09:23:46.511Z,2.83
2022-12-08T09:26:12.916Z,2.85
2022-12-08T09:28:39.452Z,2.87
2022-12-08T09:31:06.222Z,2.91
2022-12-08T09:33:36.293Z,2.83
2022-12-08T09:36:03.994Z,2.77
2022-12-08T09:38:33.623Z,2.83
2022-12-08T09:41:03.710Z,2.89
2022-12-08T09:44:03.930Z,2.94
2022-12-08T09:46:33.919Z,2.97
2022-12-08T09:49:02.074Z,2.96
2022-12-08T09:51:34.650Z,2.96
2022-12-08T09:54:07.813Z,2.98
2022-12-08T09:56:37.015Z,2.99
2022-12-08T09:59:22.116Z,2.94
2022-12-08T10:01:52.368Z,2.96
2022-12-08T10:04:32.422Z,2.93
2022-12-08T10:07:26.599Z,2.95
2022-12-08T10:10:03.438Z,2.93
2022-12-08T10:12:33.284Z,3.00
2022-12-08T10:15:19.243Z,3.05
2022-12-08T10:17:48.590Z,3.16
2022-12-08T10:20:24.426Z,3.15
2022-12-08T10:22:58.564Z,3.13
2022-12-08T10:25:35.469Z,3.18
2022-12-08T10:28:08.735Z,3.19
2022-12-08T10:30:35.236Z,3.19
2022-12-08T10:33:01.952Z,3.22
2022-12-08T10:35:45.883Z,3.16
2022-12-08T10:38:30.636Z,3.15
2022-12-08T10:41:11.350Z,3.12
2022-12-08T10:46:38.077Z,3.05
2022-12-08T10:49:04.659Z,3.03
2022-12-08T10:51:34.139Z,3.07
2022-12-08T10:54:01.517Z,3.04
2022-12-08T10:56:30.680Z,3.04
2022-12-08T10:59:13.400Z,3.04
2022-12-08T11:01:41.506Z,3.04
2022-12-08T11:04:20.310Z,3.05
2022-12-08T11:06:48.940Z,3.01
2022-12-08T11:09:15.480Z,2.97
2022-12-08T11:11:50.162Z,3.02
2022-12-08T11:14:22.594Z,3.05
2022-12-08T11:16:55.982Z,3.01
2022-12-08T11:19:27.754Z,2.96
2022-12-08T11:21:54.468Z,2.97
2022-12-08T11:24:24.775Z,2.97
2022-12-08T11:27:04.704Z,2.96
2022-12-08T11:29:35.493Z,2.93
2022-12-08T11:32:04.438Z,2.95
2022-12-08T11:41:39.773Z,2.81
2022-12-08T11:59:50.896Z,2.94
2022-12-08T12:09:44.495Z,3.20
2022-12-08T12:12:39.909Z,3.24
2022-12-08T12:15:30.061Z,3.27
2022-12-08T12:21:34.351Z,3.32
2022-12-08T12:24:06.986Z,3.38
2022-12-08T12:27:22.191Z,3.34
2022-12-08T12:30:13.460Z,3.53
2022-12-08T12:36:18.133Z,3.46
2022-12-08T12:39:10.984Z,3.41
2022-12-08T12:42:06.507Z,3.29
2022-12-08T12:44:56.098Z,3.25
2022-12-08T12:47:56.253Z,3.26
2022-12-08T12:50:32.427Z,3.29
2022-12-08T12:53:17.315Z,3.29
2022-12-08T12:56:00.752Z,3.30
2022-12-08T12:58:27.954Z,3.31
2022-12-08T13:01:45.084Z,3.19
2022-12-08T13:05:06.252Z,3.16
2022-12-08T13:12:45.416Z,3.15
2022-12-08T13:23:35.046Z,3.26
2022-12-08T13:34:48.434Z,3.20
2022-12-08T13:42:16.714Z,3.06
2022-12-08T13:46:12.518Z,2.97
2022-12-08T13:57:01.272Z,2.97
2022-12-08T13:59:29.608Z,3.49
2022-12-08T14:02:55.393Z,3.28
2022-12-08T14:06:13.674Z,3.20
2022-12-08T14:09:23.439Z,3.23
2022-12-08T14:12:37.616Z,3.30
2022-12-08T14:19:07.570Z,3.24
2022-12-08T14:22:12.408Z,3.23
2022-12-08T14:24:38.380Z,3.18
2022-12-08T14:27:10.582Z,3.15
2022-12-08T14:29:52.695Z,3.17
2022-12-08T14:33:03.166Z,3.13
2022-12-08T14:36:17.962Z,3.11
2022-12-08T14:39:10.881Z,3.01
2022-12-08T14:42:13.977Z,2.97
2022-12-08T14:48:25.618Z,2.90
2022-12-08T14:50:58.025Z,2.87
2022-12-08T14:53:25.601Z,2.84
2022-12-08T14:55:52.362Z,2.79
2022-12-08T14:58:24.827Z,2.73
2022-12-08T15:00:56.742Z,2.67
2022-12-08T15:03:24.745Z,2.63
2022-12-08T15:05:56.955Z,2.56
2022-12-08T15:08:24.270Z,2.55
2022-12-08T15:11:13.711Z,2.52
2022-12-08T15:13:48.232Z,2.52
2022-12-08T15:16:29.204Z,2.53
2022-12-08T15:19:28.248Z,2.52
2022-12-08T15:21:57.492Z,2.52
2022-12-08T15:24:25.449Z,2.53
2022-12-08T15:26:52.840Z,2.53
2022-12-08T15:29:28.289Z,2.53
2022-12-08T15:32:00.694Z,2.51
2022-12-08T15:34:27.522Z,2.52
2022-12-08T15:36:55.067Z,2.53
2022-12-08T15:39:32.921Z,2.55
2022-12-08T15:42:00.372Z,2.56
2022-12-08T15:44:27.154Z,2.57
2022-12-08T15:46:53.944Z,2.59
2022-12-08T15:49:22.881Z,2.66
2022-12-08T15:51:50.157Z,2.67
2022-12-08T15:54:16.886Z,2.68
2022-12-08T15:57:17.959Z,2.72
2022-12-08T15:59:37.521Z,2.74
2022-12-08T16:02:04.207Z,2.74
2022-12-08T16:05:18.358Z,2.69
2022-12-08T16:07:33.562Z,2.66
2022-12-08T16:13:57.509Z,2.50
2022-12-08T16:16:29.511Z,2.38
2022-12-08T16:18:55.895Z,2.28
2022-12-08T16:21:53.410Z,2.23
2022-12-08T16:24:09.605Z,2.20
2022-12-08T16:27:35.485Z,2.23
2022-12-08T16:29:28.346Z,2.23
2022-12-08T16:31:55.039Z,2.19
2022-12-08T16:34:21.608Z,2.14
2022-12-08T16:36:52.541Z,2.04
2022-12-08T16:39:19.111Z,1.92
2022-12-08T16:42:04.159Z,1.87
2022-12-08T16:44:42.372Z,1.83
2022-12-08T16:47:09.423Z,1.84
2022-12-08T16:49:39.225Z,1.86
2022-12-08T16:52:08.592Z,1.89
2022-12-08T16:54:35.247Z,1.94
2022-12-08T16:57:01.772Z,2.00
2022-12-08T16:59:28.255Z,2.06
2022-12-08T17:01:54.770Z,2.10
2022-12-08T17:04:36.931Z,2.14
2022-12-08T17:07:03.545Z,2.16
2022-12-08T17:09:31.611Z,2.20
2022-12-08T17:12:03.514Z,2.22
2022-12-08T17:14:33.992Z,2.23
2022-12-08T17:17:00.919Z,2.19
2022-12-08T17:19:27.499Z,2.17
2022-12-08T17:21:53.990Z,2.14
2022-12-08T17:24:22.981Z,2.11
2022-12-08T17:26:49.485Z,2.10
2022-12-08T17:29:18.580Z,2.02
2022-12-08T17:31:45.518Z,1.94
2022-12-08T17:34:12.244Z,1.86
2022-12-08T17:36:38.746Z,1.78
2022-12-08T17:39:13.441Z,1.72
2022-12-08T17:41:44.673Z,1.68
2022-12-08T17:44:17.450Z,1.63
2022-12-08T17:46:49.109Z,1.59
2022-12-08T17:49:24.808Z,1.58
2022-12-08T17:51:54.844Z,1.55
2022-12-08T17:54:21.752Z,1.53
2022-12-08T17:56:48.453Z,1.56
2022-12-08T17:59:15.509Z,1.60
2022-12-08T18:01:44.532Z,1.64
2022-12-08T18:04:12.424Z,1.65
2022-12-08T18:06:43.393Z,1.67
2022-12-08T18:09:10.015Z,1.72
2022-12-08T18:11:36.863Z,1.69
2022-12-08T18:14:09.935Z,1.60
2022-12-08T18:16:47.204Z,1.50
2022-12-08T18:19:15.386Z,1.43
2022-12-08T18:21:42.390Z,1.36
2022-12-08T18:24:15.162Z,1.39
2022-12-08T18:26:41.707Z,1.41
2022-12-08T18:29:08.155Z,1.44
2022-12-08T18:31:34.604Z,1.50
2022-12-08T18:34:01.151Z,1.54
2022-12-08T18:36:27.630Z,1.54
2022-12-08T18:38:54.146Z,1.47
2022-12-08T18:41:26.526Z,1.37
2022-12-08T18:44:00.392Z,1.30
2022-12-08T18:46:39.125Z,1.24
2022-12-08T18:52:13.168Z,1.13
2022-12-08T18:55:09.111Z,1.05
2022-12-08T18:58:06.501Z,0.98
2022-12-08T19:00:31.385Z,0.96
2022-12-08T19:03:00.039Z,0.99
2022-12-08T19:05:26.836Z,1.09
2022-12-08T19:15:33.456Z,1.39
2022-12-08T19:28:43.125Z,1.60
2022-12-08T19:31:10.771Z,1.65
2022-12-08T19:38:35.464Z,1.72
2022-12-08T19:45:00.444Z,1.74
2022-12-08T19:48:09.889Z,1.75
2022-12-08T19:51:14.799Z,1.76
2022-12-08T19:53:47.286Z,1.79
2022-12-08T19:56:14.469Z,1.79
2022-12-08T19:58:41.210Z,1.80
2022-12-08T20:01:08.159Z,1.79
2022-12-08T20:03:40.373Z,1.85
2022-12-08T20:06:18.315Z,1.90
2022-12-08T20:09:09.288Z,1.86
2022-12-08T20:15:29.629Z,1.84
2022-12-08T20:21:41.569Z,1.87
2022-12-08T20:24:17.615Z,1.87
2022-12-08T20:30:02.935Z,1.95
2022-12-08T20:32:33.395Z,1.98
2022-12-08T20:35:56.119Z,1.98
2022-12-08T20:41:26.626Z,2.01
2022-12-08T20:44:05.514Z,2.02
2022-12-08T20:46:34.692Z,2.01
2022-12-08T20:49:04.226Z,1.99
2022-12-08T20:51:32.821Z,1.98
2022-12-08T20:54:02.143Z,2.01
2022-12-08T20:56:36.453Z,2.03
2022-12-08T20:59:03.287Z,2.04
2022-12-08T21:01:32.467Z,2.07
2022-12-08T21:04:28.107Z,2.07
2022-12-08T21:07:01.623Z,2.08
2022-12-08T21:09:31.705Z,2.06
2022-12-08T21:11:58.575Z,2.03
2022-12-08T21:17:43.693Z,2.08
2022-12-08T21:21:10.999Z,2.11
2022-12-08T21:30:13.896Z,2.13
2022-12-08T21:32:39.304Z,2.13
2022-12-08T21:42:00.237Z,2.06
2022-12-08T21:44:56.349Z,2.02
2022-12-08T21:47:52.236Z,2.04
2022-12-08T21:50:20.025Z,2.03
2022-12-08T21:56:11.443Z,2.09
2022-12-08T21:59:01.798Z,2.10
2022-12-08T22:03:30.182Z,2.11
2022-12-08T22:06:45.685Z,2.13
2022-12-08T22:15:33.134Z,2.09
2022-12-08T22:18:31.305Z,2.11
2022-12-08T22:25:30.977Z,2.16
2022-12-08T22:28:22.339Z,2.13
2022-12-08T22:31:07.430Z,2.12
2022-12-08T22:33:40.597Z,2.12
2022-12-08T22:37:04.200Z,2.13
2022-12-08T22:40:40.773Z,2.15
2022-12-08T22:44:07.145Z,2.17
2022-12-08T22:47:25.663Z,2.19
2022-12-08T23:00:20.627Z,2.09
2022-12-08T23:09:21.380Z,1.90
2022-12-08T23:14:56.177Z,1.82
2022-12-08T23:17:27.056Z,1.82
2022-12-08T23:20:15.526Z,1.81
2022-12-08T23:22:53.615Z,1.81
2022-12-08T23:38:38.926Z,1.79
2022-12-08T23:48:14.122Z,1.73
2022-12-08T23:54:12.872Z,1.69
2022-12-08T23:57:04.480Z,1.68
2022-12-08T23:59:42.168Z,1.69
